Time;durP1;ratioP1;P1;durP2;ratioP2;P2;SDS_P1;SDS_P2;PMS_P1;PMS_P2;Temp;Humidity;BMP_temperature;BMP_pressure;BME280_temperature;BME280_humidity;BME280_pressure;Samples;Min_cycle;Max_cycle;Signal;HPM_P1;HPM_P2
2024/03/04 09:49:28;;;;;;;;;;;;;;;13.44;99.90;99735.94;4989155;28;1316;-60
2024/03/04 09:55:12;;;;;;;;;;;;;;;13.76;99.76;99731.78;4992219;28;702;-60
2024/03/04 09:57:39;;;;;;;;;;;;;;;13.81;98.72;99738.84;4990484;28;1248;-61
2024/03/04 10:00:11;;;;;;;;;;;;;;;13.68;98.25;99733.91;4992097;28;1914;-61
2024/03/04 10:02:38;;;;;;;;;;;;;;;13.64;99.08;99737.94;4992200;28;890;-60
2024/03/04 10:05:05;;;;;;;;;;;;;;;13.50;100.00;99732.66;4992170;28;838;-61
2024/03/04 10:07:35;;;;;;;;;;;;;;;13.54;100.00;99738.94;4992057;28;858;-60
2024/03/04 10:10:02;;;;;;;;;;;;;;;13.81;99.09;99728.50;4992094;28;819;-60
2024/03/04 10:12:29;;;;;;;;;;;;;;;13.71;100.00;99721.16;4992398;28;877;-60
2024/03/04 10:14:59;;;;;;;;;;;;;;;13.45;100.00;99725.59;4991990;28;856;-60
2024/03/04 10:17:27;;;;;;;;;;;;;;;13.53;100.00;99720.69;4992204;28;885;-60
2024/03/04 10:20:00;;;;;;;;;;;;;;;13.83;100.00;99711.41;4991855;28;1891;-60
2024/03/04 10:22:33;;;;;;;;;;;;;;;14.18;96.84;99718.22;4992009;28;863;-60
2024/03/04 10:25:10;;;;;;;;;;;;;;;14.23;98.16;99716.94;4974477;28;1411;-61
2024/03/04 10:27:38;;;;;;;;;;;;;;;13.92;98.08;99710.84;4991960;28;913;-60
2024/03/04 10:30:21;;;;;;;;;;;;;;;13.80;98.51;99712.25;4991918;28;1318;-60
2024/03/04 10:32:49;;;;;;;;;;;;;;;13.69;98.96;99706.91;4992724;28;823;-60
2024/03/04 10:35:16;;;;;;;;;;;;;;;13.48;100.00;99708.88;4995570;28;847;-60
2024/03/04 10:37:43;;;;;;;;;;;;;;;13.30;100.00;99694.53;4995474;28;866;-59
2024/03/04 10:40:11;;;;;;;;;;;;;;;13.54;100.00;99697.28;4995379;28;1945;-59
2024/03/04 10:42:41;;;;;;;;;;;;;;;13.93;100.00;99693.72;4995411;28;799;-59
2024/03/04 10:45:17;;;;;;;;;;;;;;;14.20;98.41;99695.56;4995358;28;983;-60
2024/03/04 10:47:47;;;;;;;;;;;;;;;14.56;95.55;99692.03;4995342;28;862;-60
2024/03/04 10:50:17;;;;;;;;;;;;;;;14.81;94.35;99688.66;4995330;28;905;-60
2024/03/04 10:52:43;;;;;;;;;;;;;;;15.36;88.25;99686.09;4995120;28;880;-60
2024/03/04 10:55:11;;;;;;;;;;;;;;;15.52;88.38;99686.81;4995197;28;831;-60
2024/03/04 10:57:43;;;;;;;;;;;;;;;15.48;87.61;99685.38;4995240;28;950;-60
2024/03/04 11:00:17;;;;;;;;;;;;;;;15.70;87.19;99668.84;4994987;28;1934;-61
2024/03/04 11:03:03;;;;;;;;;;;;;;;15.39;85.00;99672.06;4995231;28;941;-61
2024/03/04 11:05:33;;;;;;;;;;;;;;;15.20;87.17;99664.63;4994954;28;867;-60
2024/03/04 11:08:07;;;;;;;;;;;;;;;15.40;86.68;99658.91;4994965;28;819;-60
2024/03/04 11:10:38;;;;;;;;;;;;;;;15.09;87.75;99660.13;4995120;28;858;-60
2024/03/04 11:13:16;;;;;;;;;;;;;;;14.87;90.78;99651.53;4994853;28;819;-62
2024/03/04 11:15:56;;;;;;;;;;;;;;;14.76;90.11;99645.44;4994840;28;890;-60
2024/03/04 11:18:45;;;;;;;;;;;;;;;14.84;90.52;99638.47;4977239;28;882;-60
2024/03/04 11:21:13;;;;;;;;;;;;;;;15.20;89.02;99642.34;4984498;28;1882;-60
2024/03/04 11:23:40;;;;;;;;;;;;;;;15.51;89.19;99635.16;4994751;28;815;-60
2024/03/04 11:26:09;;;;;;;;;;;;;;;15.67;84.65;99625.94;4994648;28;909;-60
2024/03/04 11:28:37;;;;;;;;;;;;;;;16.18;84.37;99624.50;4994594;28;835;-60
2024/03/04 11:31:04;;;;;;;;;;;;;;;16.63;81.82;99624.25;4994859;28;839;-60
2024/03/04 11:33:43;;;;;;;;;;;;;;;17.69;77.55;99621.00;4994555;28;913;-60
2024/03/04 11:36:12;;;;;;;;;;;;;;;17.49;74.47;99612.94;4994367;28;839;-60
2024/03/04 11:38:41;;;;;;;;;;;;;;;16.91;76.36;99603.00;4994487;28;800;-60
2024/03/04 11:41:08;;;;;;;;;;;;;;;16.29;77.29;99599.84;4994315;28;1955;-60
2024/03/04 11:43:44;;;;;;;;;;;;;;;16.15;77.63;99605.84;4994303;28;885;-60
2024/03/04 11:46:12;;;;;;;;;;;;;;;16.09;77.92;99600.06;4994372;28;952;-62
2024/03/04 11:48:41;;;;;;;;;;;;;;;16.20;78.37;99600.50;4993886;28;1163;-63
2024/03/04 11:51:08;;;;;;;;;;;;;;;16.56;77.06;99604.97;4994173;28;853;-62
2024/03/04 11:53:37;;;;;;;;;;;;;;;16.21;76.57;99593.69;4994283;28;826;-60
2024/03/04 11:56:03;;;;;;;;;;;;;;;16.01;77.79;99593.91;4994199;28;962;-60
2024/03/04 11:58:30;;;;;;;;;;;;;;;15.97;78.95;99584.09;4993982;28;838;-60
2024/03/04 12:00:57;;;;;;;;;;;;;;;16.11;79.38;99573.31;4993879;28;1918;-60
2024/03/04 12:03:24;;;;;;;;;;;;;;;16.16;79.68;99571.97;4992636;28;1185;-59
2024/03/04 12:05:51;;;;;;;;;;;;;;;16.11;79.40;99575.31;4993885;28;818;-60
2024/03/04 12:08:17;;;;;;;;;;;;;;;16.27;78.23;99566.81;4992524;28;1196;-59
2024/03/04 12:10:44;;;;;;;;;;;;;;;16.33;78.45;99556.66;4993816;28;831;-59
2024/03/04 12:13:11;;;;;;;;;;;;;;;16.96;73.94;99551.41;4993673;28;865;-59
2024/03/04 12:15:41;;;;;;;;;;;;;;;17.27;73.57;99553.50;4993659;28;874;-60
2024/03/04 12:18:08;;;;;;;;;;;;;;;17.17;70.50;99551.88;4993517;28;886;-60
2024/03/04 12:20:35;;;;;;;;;;;;;;;16.65;71.35;99560.41;4993499;28;1945;-59
2024/03/04 12:23:04;;;;;;;;;;;;;;;16.42;72.37;99561.56;4993729;28;811;-59
2024/03/04 12:25:30;;;;;;;;;;;;;;;15.97;74.20;99547.88;4993514;28;808;-59
2024/03/04 12:27:57;;;;;;;;;;;;;;;16.05;76.49;99544.41;4993378;28;977;-60
2024/03/04 12:30:24;;;;;;;;;;;;;;;16.57;74.28;99533.97;4993410;28;807;-60
2024/03/04 12:32:52;;;;;;;;;;;;;;;17.23;71.82;99527.72;4993374;28;835;-60
2024/03/04 12:35:25;;;;;;;;;;;;;;;17.97;66.76;99522.56;4993233;28;819;-60
2024/03/04 12:37:53;;;;;;;;;;;;;;;18.54;64.32;99518.22;4993413;28;827;-63
2024/03/04 12:40:21;;;;;;;;;;;;;;;18.64;65.29;99532.97;4993131;28;1894;-63
2024/03/04 12:43:04;;;;;;;;;;;;;;;18.62;63.70;99523.50;4993243;28;843;-63
2024/03/04 12:45:30;;;;;;;;;;;;;;;18.05;63.87;99521.81;4993087;28;1006;-63
2024/03/04 12:47:59;;;;;;;;;;;;;;;16.98;67.31;99523.03;4993055;28;1566;-60
2024/03/04 12:50:27;;;;;;;;;;;;;;;16.65;70.71;99526.91;4992914;28;1327;-60
2024/03/04 12:52:54;;;;;;;;;;;;;;;16.61;71.30;99519.91;4993211;28;1245;-60
2024/03/04 12:55:20;;;;;;;;;;;;;;;16.16;72.69;99518.97;4993235;28;783;-60
2024/03/04 12:57:52;;;;;;;;;;;;;;;15.74;74.52;99512.75;4993066;28;838;-63
2024/03/04 13:00:19;;;;;;;;;;;;;;;15.44;84.41;99504.44;4992819;28;1969;-61
2024/03/04 13:02:46;;;;;;;;;;;;;;;14.99;90.12;99507.31;4991625;28;1313;-58
2024/03/04 13:05:14;;;;;;;;;;;;;;;14.69;95.93;99507.31;4992978;28;836;-58
2024/03/04 13:07:41;;;;;;;;;;;;;;;14.57;98.64;99510.78;4992711;28;851;-58
2024/03/04 13:10:09;;;;;;;;;;;;;;;14.78;96.43;99509.47;4975379;28;1323;-58
2024/03/04 13:12:36;;;;;;;;;;;;;;;15.04;96.30;99510.38;4992632;28;867;-58
2024/03/04 13:15:06;;;;;;;;;;;;;;;15.20;91.88;99503.16;4992723;28;838;-58
2024/03/04 13:17:35;;;;;;;;;;;;;;;14.97;92.40;99507.75;4992546;28;814;-59
2024/03/04 13:20:12;;;;;;;;;;;;;;;14.61;96.39;99502.38;4992563;28;1951;-58
2024/03/04 13:22:40;;;;;;;;;;;;;;;14.66;97.55;99507.41;4992796;28;811;-58
2024/03/04 13:25:07;;;;;;;;;;;;;;;14.78;96.00;99505.91;4992743;28;827;-58
2024/03/04 13:27:34;;;;;;;;;;;;;;;14.70;96.35;99506.09;4992617;28;795;-58
2024/03/04 13:30:04;;;;;;;;;;;;;;;14.39;96.68;99500.13;4992560;28;825;-58
2024/03/04 13:32:31;;;;;;;;;;;;;;;14.42;97.97;99507.59;4992491;28;963;-59
2024/03/04 13:34:58;;;;;;;;;;;;;;;14.48;97.95;99505.84;4992355;28;842;-59
2024/03/04 13:37:24;;;;;;;;;;;;;;;14.76;97.10;99497.22;4992459;28;848;-59
2024/03/04 13:39:51;;;;;;;;;;;;;;;14.68;97.30;99499.41;4990971;28;1942;-59
2024/03/04 13:42:18;;;;;;;;;;;;;;;14.60;98.95;99500.81;4992400;28;822;-59
2024/03/04 13:44:45;;;;;;;;;;;;;;;14.61;98.38;99499.59;4992244;28;807;-59
2024/03/04 13:47:11;;;;;;;;;;;;;;;14.49;97.11;99495.50;4992754;28;951;-59
2024/03/04 13:49:40;;;;;;;;;;;;;;;14.25;99.55;99498.50;4990711;28;1226;-59
2024/03/04 13:52:07;;;;;;;;;;;;;;;14.18;100.00;99498.66;4992280;28;799;-59
2024/03/04 13:54:34;;;;;;;;;;;;;;;14.11;99.87;99486.94;4992254;28;828;-59
2024/03/04 13:57:03;;;;;;;;;;;;;;;13.85;100.00;99487.53;4992463;28;948;-58
2024/03/04 13:59:29;;;;;;;;;;;;;;;13.71;100.00;99487.06;4992020;28;1910;-58
2024/03/04 14:01:57;;;;;;;;;;;;;;;13.67;100.00;99493.47;4992202;28;835;-58
2024/03/04 14:04:24;;;;;;;;;;;;;;;13.91;100.00;99479.44;4990914;28;1308;-57
2024/03/04 14:06:50;;;;;;;;;;;;;;;14.19;100.00;99482.75;4992102;28;881;-58
2024/03/04 14:09:19;;;;;;;;;;;;;;;14.34;97.83;99475.63;4995471;28;818;-58
2024/03/04 14:11:46;;;;;;;;;;;;;;;14.84;92.83;99479.88;4995913;28;870;-58
2024/03/04 14:14:12;;;;;;;;;;;;;;;14.88;91.57;99480.56;4995865;28;855;-58
2024/03/04 14:16:39;;;;;;;;;;;;;;;14.87;90.37;99470.69;4995738;28;820;-58
2024/03/04 14:19:06;;;;;;;;;;;;;;;14.88;89.05;99477.00;4978362;28;1193;-58
2024/03/04 14:21:33;;;;;;;;;;;;;;;14.79;89.69;99472.09;4995657;28;1890;-58
2024/03/04 14:23:59;;;;;;;;;;;;;;;14.84;88.48;99481.91;4995754;28;854;-58
2024/03/04 14:26:26;;;;;;;;;;;;;;;14.87;88.43;99486.56;4995703;28;806;-58
2024/03/04 14:28:52;;;;;;;;;;;;;;;14.81;87.81;99477.22;4995624;28;863;-58
2024/03/04 14:31:19;;;;;;;;;;;;;;;14.77;87.00;99482.09;4995547;28;881;-58
2024/03/04 14:33:46;;;;;;;;;;;;;;;14.58;88.21;99489.34;4995567;28;893;-58
2024/03/04 14:36:13;;;;;;;;;;;;;;;14.49;88.96;99476.03;4995475;28;753;-58
2024/03/04 14:38:39;;;;;;;;;;;;;;;14.37;88.98;99471.97;4995377;28;837;-58
2024/03/04 14:41:06;;;;;;;;;;;;;;;14.20;91.24;99473.97;4995364;28;1977;-58
2024/03/04 14:43:32;;;;;;;;;;;;;;;14.03;91.80;99478.75;4995314;28;851;-58
2024/03/04 14:45:59;;;;;;;;;;;;;;;13.84;93.78;99474.84;4995309;28;995;-58
2024/03/04 14:48:27;;;;;;;;;;;;;;;13.88;94.82;99483.09;4994978;28;1301;-57
2024/03/04 14:50:54;;;;;;;;;;;;;;;13.74;94.93;99467.56;4995238;28;830;-58
2024/03/04 14:53:21;;;;;;;;;;;;;;;13.45;96.45;99473.75;4995117;28;834;-58
2024/03/04 14:55:48;;;;;;;;;;;;;;;13.44;97.65;99466.63;4995113;28;878;-57
2024/03/04 14:58:15;;;;;;;;;;;;;;;13.37;97.69;99469.53;4995145;28;865;-57
2024/03/04 15:00:42;;;;;;;;;;;;;;;12.97;100.00;99463.22;4994991;28;1974;-58
2024/03/04 15:03:09;;;;;;;;;;;;;;;12.80;100.00;99465.13;4995184;28;800;-58
2024/03/04 15:05:36;;;;;;;;;;;;;;;12.54;100.00;99470.38;4994948;28;835;-57
2024/03/04 15:08:04;;;;;;;;;;;;;;;12.26;100.00;99468.88;4995172;28;827;-57
2024/03/04 15:10:30;;;;;;;;;;;;;;;12.02;100.00;99462.56;4994877;28;830;-58
2024/03/04 15:12:57;;;;;;;;;;;;;;;11.68;100.00;99460.69;4994864;28;934;-57
2024/03/04 15:15:23;;;;;;;;;;;;;;;11.39;100.00;99465.84;4994689;28;865;-57
2024/03/04 15:17:50;;;;;;;;;;;;;;;11.39;100.00;99465.84;4994866;28;851;-57
2024/03/04 15:20:21;;;;;;;;;;;;;;;11.19;100.00;99469.25;4994257;28;1890;-57
2024/03/04 15:22:48;;;;;;;;;;;;;;;11.00;100.00;99467.13;4994961;28;855;-57
2024/03/04 15:25:15;;;;;;;;;;;;;;;10.76;100.00;99469.75;4977135;28;859;-57
2024/03/04 15:27:42;;;;;;;;;;;;;;;10.49;100.00;99468.88;4994615;28;893;-57
2024/03/04 15:30:09;;;;;;;;;;;;;;;10.26;100.00;99461.16;4994579;28;885;-58
2024/03/04 15:32:37;;;;;;;;;;;;;;;10.17;100.00;99467.16;4994437;28;890;-57
2024/03/04 15:35:05;;;;;;;;;;;;;;;10.02;100.00;99480.28;4994755;28;854;-58
2024/03/04 15:37:34;;;;;;;;;;;;;;;9.76;100.00;99478.91;4994430;28;830;-57
2024/03/04 15:40:08;;;;;;;;;;;;;;;9.52;100.00;99486.94;4994267;28;1949;-57
2024/03/04 15:42:38;;;;;;;;;;;;;;;9.32;100.00;99494.91;4994288;28;823;-58
2024/03/04 15:45:05;;;;;;;;;;;;;;;9.12;100.00;99486.34;4994287;28;819;-58
2024/03/04 15:47:32;;;;;;;;;;;;;;;8.91;100.00;99486.41;4994704;28;1273;-58
2024/03/04 15:49:59;;;;;;;;;;;;;;;8.66;100.00;99492.00;4993989;28;1322;-58
2024/03/04 15:52:26;;;;;;;;;;;;;;;8.42;100.00;99485.34;4994104;28;1213;-58
2024/03/04 15:54:54;;;;;;;;;;;;;;;8.20;100.00;99482.59;4994110;28;1161;-58
2024/03/04 15:57:20;;;;;;;;;;;;;;;7.92;100.00;99486.91;4994294;28;815;-58
2024/03/04 15:59:48;;;;;;;;;;;;;;;7.65;100.00;99482.94;4993895;28;1907;-58
2024/03/04 16:02:15;;;;;;;;;;;;;;;7.41;100.00;99479.75;4994196;28;819;-58
2024/03/04 16:04:45;;;;;;;;;;;;;;;7.22;100.00;99472.63;4994486;28;830;-58
2024/03/04 16:07:12;;;;;;;;;;;;;;;7.13;100.00;99473.00;4993861;28;948;-59
2024/03/04 16:09:39;;;;;;;;;;;;;;;7.07;100.00;99479.25;4993731;28;865;-58
2024/03/04 16:12:06;;;;;;;;;;;;;;;7.01;100.00;99480.78;4992478;28;1185;-58
2024/03/04 16:14:33;;;;;;;;;;;;;;;6.84;100.00;99482.28;4993743;28;859;-58
2024/03/04 16:16:59;;;;;;;;;;;;;;;6.68;100.00;99471.63;4993902;28;795;-58
2024/03/04 16:19:26;;;;;;;;;;;;;;;6.51;100.00;99467.59;4993622;28;1878;-59
2024/03/04 16:21:53;;;;;;;;;;;;;;;6.43;100.00;99474.19;4993554;28;870;-58
2024/03/04 16:24:19;;;;;;;;;;;;;;;6.34;100.00;99469.84;4993650;28;811;-58
2024/03/04 16:26:50;;;;;;;;;;;;;;;6.23;100.00;99474.47;4975964;28;1455;-58
2024/03/04 16:29:18;;;;;;;;;;;;;;;6.10;100.00;99470.41;4993486;28;799;-58
2024/03/04 16:31:45;;;;;;;;;;;;;;;5.94;100.00;99470.66;4992945;28;823;-58
2024/03/04 16:34:12;;;;;;;;;;;;;;;5.78;100.00;99462.69;4993349;28;800;-58
2024/03/04 16:36:39;;;;;;;;;;;;;;;5.65;100.00;99470.41;4993269;28;905;-58
2024/03/04 16:39:10;;;;;;;;;;;;;;;5.57;100.00;99471.53;4993248;28;809;-58
2024/03/04 16:41:37;;;;;;;;;;;;;;;5.50;100.00;99476.91;4993153;28;1890;-58
2024/03/04 16:44:04;;;;;;;;;;;;;;;5.43;100.00;99474.09;4993418;28;850;-57
2024/03/04 16:46:30;;;;;;;;;;;;;;;5.39;100.00;99487.75;4993396;28;893;-59
2024/03/04 16:48:57;;;;;;;;;;;;;;;5.38;100.00;99479.94;4992767;28;1389;-58
2024/03/04 16:51:23;;;;;;;;;;;;;;;5.27;100.00;99488.00;4993114;28;843;-58
2024/03/04 16:53:50;;;;;;;;;;;;;;;5.15;100.00;99499.25;4993211;28;816;-59
2024/03/04 16:56:17;;;;;;;;;;;;;;;5.05;100.00;99498.72;4992965;28;816;-58
2024/03/04 16:58:44;;;;;;;;;;;;;;;4.98;100.00;99498.63;4992776;28;881;-58
2024/03/04 17:01:11;;;;;;;;;;;;;;;4.97;100.00;99501.75;4992828;28;1978;-58
2024/03/04 17:03:39;;;;;;;;;;;;;;;4.92;100.00;99502.88;4992939;28;833;-58
2024/03/04 17:06:06;;;;;;;;;;;;;;;4.85;100.00;99502.78;4992787;28;864;-58
2024/03/04 17:08:32;;;;;;;;;;;;;;;4.82;100.00;99507.06;4992839;28;863;-58
2024/03/04 17:10:59;;;;;;;;;;;;;;;4.76;100.00;99513.19;4992736;28;866;-58
2024/03/04 17:13:26;;;;;;;;;;;;;;;4.67;100.00;99510.72;4992756;28;894;-58
2024/03/04 17:15:52;;;;;;;;;;;;;;;4.66;100.00;99512.69;4992718;28;837;-58
2024/03/04 17:18:19;;;;;;;;;;;;;;;4.63;100.00;99513.44;4992947;28;865;-58
2024/03/04 17:20:47;;;;;;;;;;;;;;;4.54;100.00;99506.63;4992599;28;1890;-58
2024/03/04 17:23:16;;;;;;;;;;;;;;;4.50;100.00;99506.56;4992592;28;819;-59
2024/03/04 17:25:43;;;;;;;;;;;;;;;4.41;100.00;99498.63;4992599;28;877;-58
2024/03/04 17:28:15;;;;;;;;;;;;;;;4.32;100.00;99508.28;4992563;28;836;-58
2024/03/04 17:30:45;;;;;;;;;;;;;;;4.19;100.00;99505.72;4992544;28;831;-58
2024/03/04 17:33:10;;;;;;;;;;;;;;;4.12;100.00;99502.06;4992464;28;850;-58
2024/03/04 17:35:37;;;;;;;;;;;;;;;4.05;100.00;99500.03;4992425;28;850;-58
2024/03/04 17:38:05;;;;;;;;;;;;;;;4.02;100.00;99501.53;4992603;28;792;-58
2024/03/04 17:40:32;;;;;;;;;;;;;;;3.99;100.00;99504.22;4992402;28;1944;-59
2024/03/04 17:42:59;;;;;;;;;;;;;;;3.95;100.00;99495.16;4997242;28;815;-58
2024/03/04 17:45:26;;;;;;;;;;;;;;;4.00;100.00;99497.59;4998833;28;1012;-59
2024/03/04 17:47:53;;;;;;;;;;;;;;;3.98;100.00;99499.91;4998742;28;819;-59
2024/03/04 17:50:20;;;;;;;;;;;;;;;3.88;100.00;99496.66;4998614;28;1448;-58
2024/03/04 17:52:47;;;;;;;;;;;;;;;4.12;100.00;99500.16;4999088;28;800;-59
2024/03/04 17:55:13;;;;;;;;;;;;;;;4.22;100.00;99502.25;4998749;28;858;-59
2024/03/04 17:57:40;;;;;;;;;;;;;;;4.11;100.00;99501.28;4998887;28;846;-59
2024/03/04 18:00:06;;;;;;;;;;;;;;;4.06;100.00;99507.09;4998584;28;1924;-59
2024/03/04 18:02:33;;;;;;;;;;;;;;;3.98;100.00;99502.66;4998714;28;889;-59
2024/03/04 18:05:00;;;;;;;;;;;;;;;3.95;100.00;99501.44;4998950;28;846;-59
2024/03/04 18:07:27;;;;;;;;;;;;;;;3.99;100.00;99501.47;4998580;28;862;-59
2024/03/04 18:09:53;;;;;;;;;;;;;;;3.94;100.00;99497.09;4998818;28;827;-59
2024/03/04 18:12:20;;;;;;;;;;;;;;;3.79;100.00;99498.03;4998515;28;835;-59
2024/03/04 18:14:46;;;;;;;;;;;;;;;3.61;100.00;99500.44;4998596;28;818;-59
2024/03/04 18:17:13;;;;;;;;;;;;;;;3.52;100.00;99497.97;4998575;28;862;-60
2024/03/04 18:19:39;;;;;;;;;;;;;;;3.49;100.00;99504.13;4998772;28;1890;-59
2024/03/04 18:22:06;;;;;;;;;;;;;;;3.43;100.00;99511.81;4997206;28;820;-59
2024/03/04 18:24:33;;;;;;;;;;;;;;;3.36;100.00;99513.63;4998498;28;894;-59
2024/03/04 18:27:00;;;;;;;;;;;;;;;3.34;100.00;99505.78;4998489;28;818;-59
2024/03/04 18:29:26;;;;;;;;;;;;;;;3.39;100.00;99513.72;4998712;28;799;-60
2024/03/04 18:31:53;;;;;;;;;;;;;;;3.44;100.00;99516.16;4998467;28;874;-59
2024/03/04 18:34:20;;;;;;;;;;;;;;;3.51;100.00;99515.50;4998594;28;843;-59
2024/03/04 18:36:47;;;;;;;;;;;;;;;3.50;100.00;99508.47;4998574;28;843;-60
2024/03/04 18:39:14;;;;;;;;;;;;;;;3.41;100.00;99513.34;4998515;28;874;-60
2024/03/04 18:41:40;;;;;;;;;;;;;;;3.41;100.00;99503.19;4998358;28;1948;-60
2024/03/04 18:44:07;;;;;;;;;;;;;;;3.33;100.00;99498.78;4998274;28;913;-60
2024/03/04 18:46:34;;;;;;;;;;;;;;;3.40;100.00;99504.34;4998605;28;1011;-60
2024/03/04 18:49:00;;;;;;;;;;;;;;;3.39;100.00;99502.78;4998012;28;1321;-60
2024/03/04 18:51:27;;;;;;;;;;;;;;;3.42;100.00;99499.31;4998234;28;826;-61
2024/03/04 18:53:54;;;;;;;;;;;;;;;3.30;100.00;99504.16;4996237;28;827;-61
2024/03/04 18:56:21;;;;;;;;;;;;;;;3.31;100.00;99506.53;4995527;28;889;-62
2024/03/04 18:58:47;;;;;;;;;;;;;;;3.39;100.00;99502.78;4994060;28;1279;-64
2024/03/04 19:01:22;;;;;;;;;;;;;;;3.57;100.00;99494.91;4995377;28;1914;-65
2024/03/04 19:03:48;;;;;;;;;;;;;;;3.76;100.00;99488.63;4995225;28;819;-65
2024/03/04 19:06:15;;;;;;;;;;;;;;;3.97;100.00;99492.84;4977700;28;1355;-65
2024/03/04 19:08:42;;;;;;;;;;;;;;;4.05;100.00;99494.56;4993910;28;1177;-65
2024/03/04 19:11:08;;;;;;;;;;;;;;;4.25;100.00;99490.59;4995242;28;799;-64
2024/03/04 19:13:35;;;;;;;;;;;;;;;4.47;100.00;99485.44;4995016;28;889;-65
2024/03/04 19:16:02;;;;;;;;;;;;;;;4.93;100.00;99484.47;4994919;28;826;-64
2024/03/04 19:18:29;;;;;;;;;;;;;;;5.31;100.00;99475.94;4994871;28;771;-65
2024/03/04 19:20:55;;;;;;;;;;;;;;;5.59;100.00;99479.34;4994768;28;1953;-65
2024/03/04 19:23:22;;;;;;;;;;;;;;;5.85;100.00;99476.47;4995154;28;873;-65
2024/03/04 19:25:49;;;;;;;;;;;;;;;6.06;100.00;99480.59;4994770;28;819;-65
2024/03/04 19:28:15;;;;;;;;;;;;;;;6.29;100.00;99480.38;4994926;28;871;-65
2024/03/04 19:30:43;;;;;;;;;;;;;;;6.32;100.00;99474.13;4994613;28;885;-65
2024/03/04 19:33:10;;;;;;;;;;;;;;;6.44;100.00;99478.50;4994605;28;835;-64
2024/03/04 19:35:37;;;;;;;;;;;;;;;6.57;100.00;99487.22;4993237;28;1284;-65
2024/03/04 19:38:04;;;;;;;;;;;;;;;6.59;100.00;99474.69;4993161;28;1332;-65
2024/03/04 19:40:31;;;;;;;;;;;;;;;6.65;100.00;99483.34;4994433;28;1947;-65
2024/03/04 19:42:58;;;;;;;;;;;;;;;6.70;100.00;99475.53;4977000;28;1209;-65
2024/03/04 19:45:26;;;;;;;;;;;;;;;6.78;100.00;99470.84;4994363;28;913;-65
2024/03/04 19:47:52;;;;;;;;;;;;;;;6.80;100.00;99473.22;4994514;28;855;-65
2024/03/04 19:50:20;;;;;;;;;;;;;;;6.84;100.00;99471.28;4994014;28;1216;-65
2024/03/04 19:52:47;;;;;;;;;;;;;;;6.90;100.00;99472.50;4976720;28;1209;-66
2024/03/04 19:55:15;;;;;;;;;;;;;;;6.86;100.00;99477.19;4994166;28;850;-65
2024/03/04 19:57:42;;;;;;;;;;;;;;;6.88;100.00;99467.38;4994126;28;842;-65
2024/03/04 20:00:09;;;;;;;;;;;;;;;6.95;100.00;99467.41;4992825;28;1910;-65
2024/03/04 20:02:37;;;;;;;;;;;;;;;6.98;100.00;99467.81;4992839;28;1173;-65
2024/03/04 20:05:04;;;;;;;;;;;;;;;7.00;100.00;99462.72;4993166;28;870;-65
2024/03/04 20:07:30;;;;;;;;;;;;;;;7.00;100.00;99465.47;4993831;28;875;-64
2024/03/04 20:09:57;;;;;;;;;;;;;;;7.00;100.00;99466.28;4994075;28;862;-65
2024/03/04 20:12:24;;;;;;;;;;;;;;;7.02;100.00;99469.41;4993856;28;867;-65
2024/03/04 20:14:50;;;;;;;;;;;;;;;7.02;100.00;99469.41;4993830;28;841;-65
2024/03/04 20:17:18;;;;;;;;;;;;;;;7.02;100.00;99466.66;4993889;28;823;-65
2024/03/04 20:19:44;;;;;;;;;;;;;;;7.03;100.00;99464.69;4993634;28;1882;-65
2024/03/04 20:22:11;;;;;;;;;;;;;;;7.03;100.00;99472.94;4993697;28;831;-65
2024/03/04 20:24:38;;;;;;;;;;;;;;;6.96;100.00;99468.22;4993709;28;831;-65
2024/03/04 20:27:04;;;;;;;;;;;;;;;6.91;100.00;99474.88;4976137;28;827;-65
2024/03/04 20:29:31;;;;;;;;;;;;;;;6.87;100.00;99473.25;4993640;28;934;-65
2024/03/04 20:31:58;;;;;;;;;;;;;;;6.89;100.00;99465.41;4993591;28;867;-65
2024/03/04 20:34:24;;;;;;;;;;;;;;;6.85;100.00;99459.13;4993756;28;858;-65
2024/03/04 20:36:52;;;;;;;;;;;;;;;6.81;100.00;99458.34;4975882;28;1363;-65
2024/03/04 20:39:18;;;;;;;;;;;;;;;6.83;100.00;99450.47;4993467;28;843;-64
2024/03/04 20:41:45;;;;;;;;;;;;;;;6.82;100.00;99452.44;4991196;28;1952;-65
2024/03/04 20:44:11;;;;;;;;;;;;;;;6.81;100.00;99447.34;4993240;28;812;-65
2024/03/04 20:46:38;;;;;;;;;;;;;;;6.82;100.00;99449.69;4975900;28;1200;-65
2024/03/04 20:49:04;;;;;;;;;;;;;;;6.83;100.00;99439.47;4991684;28;1320;-65
2024/03/04 20:51:32;;;;;;;;;;;;;;;6.85;100.00;99442.63;4993206;28;884;-64
2024/03/04 20:53:58;;;;;;;;;;;;;;;6.85;100.00;99443.44;4993335;28;867;-65
2024/03/04 20:56:28;;;;;;;;;;;;;;;6.85;100.00;99442.63;4993453;28;800;-65
2024/03/04 20:58:55;;;;;;;;;;;;;;;6.85;100.00;99442.63;4993130;28;847;-65
2024/03/04 21:01:21;;;;;;;;;;;;;;;6.83;100.00;99442.22;4993057;28;1915;-65
2024/03/04 21:03:48;;;;;;;;;;;;;;;6.84;100.00;99438.31;4993251;28;863;-65
2024/03/04 21:06:13;;;;;;;;;;;;;;;6.88;100.00;99434.41;4993203;28;862;-65
2024/03/04 21:08:42;;;;;;;;;;;;;;;6.88;100.00;99433.63;4992897;28;990;-65
2024/03/04 21:11:10;;;;;;;;;;;;;;;6.88;100.00;99434.41;4992974;28;819;-65
2024/03/04 21:13:37;;;;;;;;;;;;;;;6.89;100.00;99433.25;4992982;28;823;-65
2024/03/04 21:16:04;;;;;;;;;;;;;;;6.90;100.00;99414.81;4992605;28;838;-65
2024/03/04 21:18:31;;;;;;;;;;;;;;;6.93;100.00;99419.50;4992598;28;800;-65
2024/03/04 21:20:58;;;;;;;;;;;;;;;6.92;100.00;99415.22;4992636;28;1890;-65
2024/03/04 21:23:24;;;;;;;;;;;;;;;6.93;100.00;99414.03;4992703;28;846;-65
2024/03/04 21:25:51;;;;;;;;;;;;;;;6.95;100.00;99417.16;4992856;28;799;-66
2024/03/04 21:28:18;;;;;;;;;;;;;;;6.98;100.00;99407.34;4992593;28;863;-65
2024/03/04 21:30:44;;;;;;;;;;;;;;;7.00;100.00;99411.31;4992656;28;796;-65
2024/03/04 21:33:11;;;;;;;;;;;;;;;6.98;100.00;99413.66;4992589;28;834;-65
2024/03/04 21:35:37;;;;;;;;;;;;;;;7.00;100.00;99405.81;4992607;28;799;-65
2024/03/04 21:38:04;;;;;;;;;;;;;;;7.01;100.00;99409.34;4992442;28;803;-65
2024/03/04 21:40:31;;;;;;;;;;;;;;;7.01;100.00;99412.09;4991210;28;1890;-65
2024/03/04 21:42:57;;;;;;;;;;;;;;;7.01;100.00;99401.88;4992511;28;886;-65
2024/03/04 21:45:24;;;;;;;;;;;;;;;6.99;100.00;99403.44;4992665;28;1017;-65
2024/03/04 21:47:51;;;;;;;;;;;;;;;6.95;100.00;99397.94;4992923;28;922;-65
2024/03/04 21:50:18;;;;;;;;;;;;;;;6.95;100.00;99397.94;4992351;28;1227;-65
2024/03/04 21:52:45;;;;;;;;;;;;;;;6.92;100.00;99390.47;4992421;28;802;-65
2024/03/04 21:55:12;;;;;;;;;;;;;;;6.94;100.00;99393.63;4992370;28;921;-65
2024/03/04 21:57:39;;;;;;;;;;;;;;;6.95;100.00;99389.69;4992429;28;835;-65
2024/03/04 22:00:13;;;;;;;;;;;;;;;6.91;100.00;99392.44;4992496;28;1977;-65
2024/03/04 22:02:43;;;;;;;;;;;;;;;6.90;100.00;99384.59;4974959;28;1215;-65
2024/03/04 22:05:12;;;;;;;;;;;;;;;6.88;100.00;99373.19;4992195;28;866;-65
2024/03/04 22:07:39;;;;;;;;;;;;;;;6.91;100.00;99380.66;4992646;28;870;-65
2024/03/04 22:10:07;;;;;;;;;;;;;;;6.90;100.00;99379.88;4991146;28;1200;-65
2024/03/04 22:12:34;;;;;;;;;;;;;;;6.89;100.00;99370.06;4992461;28;863;-65
2024/03/04 22:15:01;;;;;;;;;;;;;;;6.90;100.00;99374.38;4992369;28;803;-66
2024/03/04 22:17:28;;;;;;;;;;;;;;;6.94;100.00;99369.69;4992271;28;816;-65
2024/03/04 22:19:54;;;;;;;;;;;;;;;6.93;100.00;99372.81;4992205;28;1890;-65
2024/03/04 22:22:21;;;;;;;;;;;;;;;6.92;100.00;99372.03;4992471;28;847;-65
2024/03/04 22:24:47;;;;;;;;;;;;;;;6.90;100.00;99373.59;4992412;28;1179;-65
2024/03/04 22:27:15;;;;;;;;;;;;;;;6.86;100.00;99361.81;4992626;28;804;-66
2024/03/04 22:29:42;;;;;;;;;;;;;;;6.89;100.00;99358.28;4993122;28;1391;-66
2024/03/04 22:32:08;;;;;;;;;;;;;;;6.90;100.00;99366.13;4995961;28;804;-65
2024/03/04 22:34:39;;;;;;;;;;;;;;;6.91;100.00;99364.97;4994652;28;1347;-65
2024/03/04 22:37:06;;;;;;;;;;;;;;;6.91;100.00;99364.97;4994426;28;1364;-65
2024/03/04 22:39:36;;;;;;;;;;;;;;;6.89;100.00;99355.53;4995902;28;847;-65
2024/03/04 22:42:03;;;;;;;;;;;;;;;6.90;100.00;99354.38;4995466;28;1887;-65
2024/03/04 22:44:30;;;;;;;;;;;;;;;6.94;100.00;99360.66;4994264;28;1189;-65
2024/03/04 22:46:57;;;;;;;;;;;;;;;6.94;100.00;99355.94;4995952;28;921;-65
2024/03/04 22:49:24;;;;;;;;;;;;;;;6.94;100.00;99355.94;4993909;28;1442;-65
2024/03/04 22:51:51;;;;;;;;;;;;;;;6.95;100.00;99354.75;4995517;28;893;-66
2024/03/04 22:54:17;;;;;;;;;;;;;;;6.94;100.00;99357.91;4995643;28;838;-66
2024/03/04 22:56:43;;;;;;;;;;;;;;;6.96;100.00;99363.81;4995544;28;791;-65